This is the latest recevied weather packets stored in our database for station/object JE9BHE-13. If no packets are shown the sender has not sent any weather packets the latest 10 day(s).
| Time | Temp. | Humidity | Pressure | Rain* | Wind** | Luminosity | Snow |
|---|---|---|---|---|---|---|---|
| 1778276166 | 10.56° C | 88% | 1019.8 hPa | 0 mm | - | - | - |
| 1778275986 | 11.11° C | 89% | 1019.8 hPa | 0.25 mm | - | - | - |
| 1778274907 | 11.11° C | 90% | 1019.7 hPa | 0.51 mm | - | - | - |
| 1778274727 | 11.11° C | 90% | 1019.7 hPa | 1.02 mm | - | - | - |
| 1778273287 | 10.56° C | 92% | 1019 hPa | 2.29 mm | - | - | - |
| 1778273107 | 10.56° C | 92% | 1019 hPa | 2.29 mm | - | - | - |
| 1778270766 | 10.56° C | 94% | 1017.8 hPa | 1.52 mm | - | - | - |
| 1778270226 | 10.56° C | 91% | 1017.2 hPa | 1.27 mm | - | - | - |
| 1778269686 | 10.56° C | 90% | 1017.2 hPa | 1.52 mm | - | - | - |
| 1778267347 | 10.56° C | 89% | 1016.1 hPa | 1.02 mm | - | - | - |
| 1778267166 | 10.56° C | 88% | 1016 hPa | 1.27 mm | - | - | - |
| 1778266986 | 10.56° C | 89% | 1016.2 hPa | 1.27 mm | - | - | - |
| 1778266626 | 10.56° C | 86% | 1016 hPa | 1.78 mm | - | - | - |
| 1778265186 | 10.56° C | 83% | 1015.2 hPa | 2.03 mm | - | - | - |
| 1778264468 | 10.56° C | 87% | 1015.2 hPa | 2.03 mm | - | - | - |
| 1778264106 | 10.56° C | 87% | 1015.2 hPa | 2.03 mm | - | - | - |
| 1778263206 | 11.11° C | 85% | 1015.1 hPa | 1.27 mm | - | - | - |
| 1778261947 | 12.22° C | 73% | 1014.4 hPa | 0 mm | - | - | - |
| 1778260507 | 13.89° C | 62% | 1014 hPa | 0 mm | - | - | - |
| 1778260146 | 12.78° C | 63% | 1014.2 hPa | 0 mm | - | - | - |
| 1778258166 | 13.33° C | 60% | 1013.5 hPa | 0 mm | - | - | - |
| 1778255827 | 12.22° C | 65% | 1014 hPa | 0 mm | - | - | - |
| 1778254206 | 12.22° C | 64% | 1013.6 hPa | 0 mm | - | - | - |
| 1778253127 | 12.22° C | 64% | 1014 hPa | 0 mm | - | - | - |
| 1778252048 | 12.78° C | 59% | 1014.3 hPa | 0 mm | - | - | - |
* Rain latest hour (hover to see other rain measurements)
** Current wind speed in m/s (hover to see current wind gust speed)